sensor_id;sensor_type;location;lat;lon;timestamp;P1;durP1;ratioP1;P2;durP2;ratioP2
32533;SDS011;18973;48.580;8.912;2023-03-21T00:01:13;5.85;;;3.75;;
32533;SDS011;18973;48.580;8.912;2023-03-21T00:03:39;5.63;;;3.83;;
32533;SDS011;18973;48.580;8.912;2023-03-21T00:06:08;5.80;;;4.72;;
32533;SDS011;18973;48.580;8.912;2023-03-21T00:08:35;4.40;;;3.15;;
32533;SDS011;18973;48.580;8.912;2023-03-21T00:11:03;5.70;;;3.80;;
32533;SDS011;18973;48.580;8.912;2023-03-21T00:13:31;6.80;;;4.50;;
32533;SDS011;18973;48.580;8.912;2023-03-21T00:18:47;5.78;;;4.72;;
32533;SDS011;18973;48.580;8.912;2023-03-21T00:21:17;6.45;;;4.32;;
32533;SDS011;18973;48.580;8.912;2023-03-21T00:23:44;5.43;;;3.88;;
32533;SDS011;18973;48.580;8.912;2023-03-21T00:26:11;6.40;;;3.92;;
32533;SDS011;18973;48.580;8.912;2023-03-21T00:28:38;5.78;;;3.70;;
32533;SDS011;18973;48.580;8.912;2023-03-21T00:31:05;8.35;;;3.80;;
32533;SDS011;18973;48.580;8.912;2023-03-21T00:33:32;5.93;;;4.00;;
32533;SDS011;18973;48.580;8.912;2023-03-21T00:35:59;4.53;;;3.63;;
32533;SDS011;18973;48.580;8.912;2023-03-21T00:38:26;5.60;;;4.22;;
32533;SDS011;18973;48.580;8.912;2023-03-21T00:40:52;4.72;;;3.50;;
32533;SDS011;18973;48.580;8.912;2023-03-21T00:43:18;6.13;;;4.40;;
32533;SDS011;18973;48.580;8.912;2023-03-21T00:45:48;6.88;;;3.65;;
32533;SDS011;18973;48.580;8.912;2023-03-21T00:48:15;5.80;;;3.83;;
32533;SDS011;18973;48.580;8.912;2023-03-21T00:50:42;5.18;;;3.85;;
32533;SDS011;18973;48.580;8.912;2023-03-21T00:53:11;5.47;;;4.13;;
32533;SDS011;18973;48.580;8.912;2023-03-21T00:55:37;4.80;;;3.83;;
32533;SDS011;18973;48.580;8.912;2023-03-21T00:58:03;4.38;;;3.90;;
32533;SDS011;18973;48.580;8.912;2023-03-21T01:00:29;8.00;;;3.85;;
32533;SDS011;18973;48.580;8.912;2023-03-21T01:02:56;6.15;;;4.45;;
32533;SDS011;18973;48.580;8.912;2023-03-21T01:05:26;5.70;;;3.88;;
32533;SDS011;18973;48.580;8.912;2023-03-21T01:08:13;6.97;;;3.65;;
32533;SDS011;18973;48.580;8.912;2023-03-21T01:10:41;5.18;;;3.90;;
32533;SDS011;18973;48.580;8.912;2023-03-21T01:13:08;6.57;;;4.38;;
32533;SDS011;18973;48.580;8.912;2023-03-21T01:15:35;5.53;;;3.90;;
32533;SDS011;18973;48.580;8.912;2023-03-21T01:18:02;4.68;;;3.38;;
32533;SDS011;18973;48.580;8.912;2023-03-21T01:20:28;7.53;;;4.25;;
32533;SDS011;18973;48.580;8.912;2023-03-21T01:22:54;4.82;;;3.70;;
32533;SDS011;18973;48.580;8.912;2023-03-21T01:25:20;5.30;;;4.15;;
32533;SDS011;18973;48.580;8.912;2023-03-21T01:27:45;5.05;;;4.07;;
32533;SDS011;18973;48.580;8.912;2023-03-21T01:30:12;5.30;;;4.10;;
32533;SDS011;18973;48.580;8.912;2023-03-21T01:32:38;9.45;;;4.15;;
32533;SDS011;18973;48.580;8.912;2023-03-21T01:35:03;7.25;;;4.35;;
32533;SDS011;18973;48.580;8.912;2023-03-21T01:37:30;6.80;;;4.43;;
32533;SDS011;18973;48.580;8.912;2023-03-21T01:39:56;8.13;;;4.28;;
32533;SDS011;18973;48.580;8.912;2023-03-21T01:42:22;5.15;;;4.30;;
32533;SDS011;18973;48.580;8.912;2023-03-21T01:44:55;6.38;;;4.70;;
32533;SDS011;18973;48.580;8.912;2023-03-21T01:47:21;6.80;;;4.68;;
32533;SDS011;18973;48.580;8.912;2023-03-21T01:49:48;9.45;;;4.60;;
32533;SDS011;18973;48.580;8.912;2023-03-21T01:52:18;8.00;;;4.63;;
32533;SDS011;18973;48.580;8.912;2023-03-21T01:54:48;10.10;;;4.90;;
32533;SDS011;18973;48.580;8.912;2023-03-21T01:57:18;9.13;;;4.70;;
32533;SDS011;18973;48.580;8.912;2023-03-21T01:59:57;7.65;;;5.18;;
32533;SDS011;18973;48.580;8.912;2023-03-21T02:02:31;6.80;;;4.63;;
32533;SDS011;18973;48.580;8.912;2023-03-21T02:05:01;8.13;;;4.93;;
32533;SDS011;18973;48.580;8.912;2023-03-21T02:07:29;6.45;;;4.35;;
32533;SDS011;18973;48.580;8.912;2023-03-21T02:09:59;5.85;;;4.50;;
32533;SDS011;18973;48.580;8.912;2023-03-21T02:12:29;8.45;;;4.38;;
32533;SDS011;18973;48.580;8.912;2023-03-21T02:14:55;6.80;;;4.35;;
32533;SDS011;18973;48.580;8.912;2023-03-21T02:22:53;6.95;;;5.03;;
32533;SDS011;18973;48.580;8.912;2023-03-21T02:28:25;6.30;;;4.45;;
32533;SDS011;18973;48.580;8.912;2023-03-21T02:33:58;6.07;;;4.60;;
32533;SDS011;18973;48.580;8.912;2023-03-21T02:37:07;7.20;;;5.07;;
32533;SDS011;18973;48.580;8.912;2023-03-21T02:42:40;9.68;;;5.40;;
32533;SDS011;18973;48.580;8.912;2023-03-21T02:45:19;6.57;;;4.68;;
32533;SDS011;18973;48.580;8.912;2023-03-21T02:47:52;7.40;;;4.47;;
32533;SDS011;18973;48.580;8.912;2023-03-21T02:50:30;8.82;;;5.40;;
32533;SDS011;18973;48.580;8.912;2023-03-21T02:53:07;6.63;;;4.10;;
32533;SDS011;18973;48.580;8.912;2023-03-21T02:55:36;5.05;;;4.53;;
32533;SDS011;18973;48.580;8.912;2023-03-21T02:58:05;8.02;;;5.18;;
32533;SDS011;18973;48.580;8.912;2023-03-21T03:00:34;8.00;;;4.50;;
32533;SDS011;18973;48.580;8.912;2023-03-21T03:03:01;5.38;;;4.72;;
32533;SDS011;18973;48.580;8.912;2023-03-21T03:05:29;6.70;;;4.55;;
32533;SDS011;18973;48.580;8.912;2023-03-21T03:16:33;6.95;;;4.68;;
32533;SDS011;18973;48.580;8.912;2023-03-21T03:26:49;6.50;;;4.82;;
32533;SDS011;18973;48.580;8.912;2023-03-21T03:29:46;22.02;;;6.97;;
32533;SDS011;18973;48.580;8.912;2023-03-21T03:32:17;8.38;;;5.05;;
32533;SDS011;18973;48.580;8.912;2023-03-21T03:34:46;10.00;;;5.18;;
32533;SDS011;18973;48.580;8.912;2023-03-21T03:37:16;6.95;;;4.72;;
32533;SDS011;18973;48.580;8.912;2023-03-21T03:39:52;10.68;;;5.55;;
32533;SDS011;18973;48.580;8.912;2023-03-21T03:42:53;8.55;;;5.00;;
32533;SDS011;18973;48.580;8.912;2023-03-21T03:45:28;7.10;;;5.20;;
32533;SDS011;18973;48.580;8.912;2023-03-21T03:48:03;9.40;;;5.28;;
32533;SDS011;18973;48.580;8.912;2023-03-21T03:53:05;9.05;;;5.65;;
32533;SDS011;18973;48.580;8.912;2023-03-21T03:55:41;11.98;;;5.93;;
32533;SDS011;18973;48.580;8.912;2023-03-21T03:58:07;5.93;;;4.97;;
32533;SDS011;18973;48.580;8.912;2023-03-21T04:00:33;6.70;;;5.30;;
32533;SDS011;18973;48.580;8.912;2023-03-21T04:02:59;7.25;;;4.75;;
32533;SDS011;18973;48.580;8.912;2023-03-21T04:05:25;11.27;;;5.50;;
32533;SDS011;18973;48.580;8.912;2023-03-21T04:07:51;5.47;;;4.35;;
32533;SDS011;18973;48.580;8.912;2023-03-21T04:10:18;8.80;;;5.57;;
32533;SDS011;18973;48.580;8.912;2023-03-21T04:12:46;7.93;;;4.95;;
32533;SDS011;18973;48.580;8.912;2023-03-21T04:15:12;6.25;;;5.00;;
32533;SDS011;18973;48.580;8.912;2023-03-21T04:17:38;10.25;;;5.35;;
32533;SDS011;18973;48.580;8.912;2023-03-21T04:20:04;7.68;;;4.80;;
32533;SDS011;18973;48.580;8.912;2023-03-21T04:22:32;8.50;;;4.85;;
32533;SDS011;18973;48.580;8.912;2023-03-21T04:24:58;9.73;;;5.25;;
32533;SDS011;18973;48.580;8.912;2023-03-21T04:27:25;9.35;;;5.57;;
32533;SDS011;18973;48.580;8.912;2023-03-21T04:29:52;8.00;;;4.90;;
32533;SDS011;18973;48.580;8.912;2023-03-21T04:32:17;8.95;;;5.22;;
32533;SDS011;18973;48.580;8.912;2023-03-21T04:34:44;10.32;;;5.07;;
32533;SDS011;18973;48.580;8.912;2023-03-21T04:37:15;6.75;;;4.70;;
32533;SDS011;18973;48.580;8.912;2023-03-21T04:39:41;9.73;;;5.32;;
32533;SDS011;18973;48.580;8.912;2023-03-21T04:42:07;8.50;;;5.55;;
32533;SDS011;18973;48.580;8.912;2023-03-21T04:44:33;10.40;;;5.03;;
32533;SDS011;18973;48.580;8.912;2023-03-21T04:46:58;7.88;;;4.53;;
32533;SDS011;18973;48.580;8.912;2023-03-21T04:49:24;9.60;;;4.88;;
32533;SDS011;18973;48.580;8.912;2023-03-21T04:51:50;6.00;;;5.15;;
32533;SDS011;18973;48.580;8.912;2023-03-21T04:54:16;7.85;;;5.22;;
32533;SDS011;18973;48.580;8.912;2023-03-21T04:56:41;10.20;;;5.65;;
32533;SDS011;18973;48.580;8.912;2023-03-21T04:59:09;6.75;;;4.80;;
32533;SDS011;18973;48.580;8.912;2023-03-21T05:01:37;6.50;;;5.20;;
32533;SDS011;18973;48.580;8.912;2023-03-21T05:04:05;9.98;;;5.10;;
32533;SDS011;18973;48.580;8.912;2023-03-21T05:06:31;9.93;;;5.13;;
32533;SDS011;18973;48.580;8.912;2023-03-21T05:08:57;10.38;;;4.68;;
32533;SDS011;18973;48.580;8.912;2023-03-21T05:11:25;9.32;;;5.22;;
32533;SDS011;18973;48.580;8.912;2023-03-21T05:13:52;6.80;;;5.43;;
32533;SDS011;18973;48.580;8.912;2023-03-21T05:16:17;8.60;;;4.80;;
32533;SDS011;18973;48.580;8.912;2023-03-21T05:18:43;8.73;;;5.82;;
32533;SDS011;18973;48.580;8.912;2023-03-21T05:21:09;7.93;;;5.07;;
32533;SDS011;18973;48.580;8.912;2023-03-21T05:23:35;7.90;;;5.18;;
32533;SDS011;18973;48.580;8.912;2023-03-21T05:26:07;7.18;;;4.80;;
32533;SDS011;18973;48.580;8.912;2023-03-21T05:28:34;9.68;;;5.13;;
32533;SDS011;18973;48.580;8.912;2023-03-21T05:31:04;8.80;;;4.90;;
32533;SDS011;18973;48.580;8.912;2023-03-21T05:33:30;10.48;;;5.70;;
32533;SDS011;18973;48.580;8.912;2023-03-21T05:35:56;10.38;;;5.47;;
32533;SDS011;18973;48.580;8.912;2023-03-21T05:38:22;7.03;;;5.22;;
32533;SDS011;18973;48.580;8.912;2023-03-21T05:40:49;8.35;;;5.30;;
32533;SDS011;18973;48.580;8.912;2023-03-21T05:43:15;7.25;;;4.90;;
32533;SDS011;18973;48.580;8.912;2023-03-21T05:45:41;7.90;;;5.00;;
32533;SDS011;18973;48.580;8.912;2023-03-21T05:48:07;7.50;;;5.45;;
32533;SDS011;18973;48.580;8.912;2023-03-21T05:50:33;7.25;;;5.53;;
32533;SDS011;18973;48.580;8.912;2023-03-21T05:52:59;10.40;;;5.78;;
32533;SDS011;18973;48.580;8.912;2023-03-21T05:55:25;8.80;;;5.25;;
32533;SDS011;18973;48.580;8.912;2023-03-21T05:57:50;8.68;;;5.45;;
32533;SDS011;18973;48.580;8.912;2023-03-21T06:00:16;7.85;;;5.60;;
32533;SDS011;18973;48.580;8.912;2023-03-21T06:02:43;9.18;;;5.65;;
32533;SDS011;18973;48.580;8.912;2023-03-21T06:05:09;5.38;;;4.85;;
32533;SDS011;18973;48.580;8.912;2023-03-21T06:07:35;7.07;;;5.47;;
32533;SDS011;18973;48.580;8.912;2023-03-21T06:10:01;7.80;;;5.43;;
32533;SDS011;18973;48.580;8.912;2023-03-21T06:12:27;27.60;;;10.63;;
32533;SDS011;18973;48.580;8.912;2023-03-21T06:14:53;12.13;;;7.28;;
32533;SDS011;18973;48.580;8.912;2023-03-21T06:17:19;6.68;;;4.82;;
32533;SDS011;18973;48.580;8.912;2023-03-21T06:19:45;6.60;;;4.88;;
32533;SDS011;18973;48.580;8.912;2023-03-21T06:22:10;8.25;;;5.10;;
32533;SDS011;18973;48.580;8.912;2023-03-21T06:24:36;6.00;;;4.95;;
32533;SDS011;18973;48.580;8.912;2023-03-21T06:27:02;4.95;;;4.47;;
32533;SDS011;18973;48.580;8.912;2023-03-21T06:29:28;5.95;;;4.85;;
32533;SDS011;18973;48.580;8.912;2023-03-21T06:31:55;6.72;;;4.68;;
32533;SDS011;18973;48.580;8.912;2023-03-21T06:34:20;7.45;;;4.78;;
32533;SDS011;18973;48.580;8.912;2023-03-21T06:36:46;6.95;;;4.88;;
32533;SDS011;18973;48.580;8.912;2023-03-21T06:39:12;9.02;;;4.97;;
32533;SDS011;18973;48.580;8.912;2023-03-21T06:41:39;8.10;;;4.47;;
32533;SDS011;18973;48.580;8.912;2023-03-21T06:44:05;7.78;;;4.63;;
32533;SDS011;18973;48.580;8.912;2023-03-21T06:46:31;5.80;;;4.38;;
32533;SDS011;18973;48.580;8.912;2023-03-21T06:48:57;8.38;;;4.80;;
32533;SDS011;18973;48.580;8.912;2023-03-21T06:51:22;8.40;;;4.43;;
32533;SDS011;18973;48.580;8.912;2023-03-21T06:53:48;9.60;;;4.70;;
32533;SDS011;18973;48.580;8.912;2023-03-21T06:56:14;6.82;;;4.75;;
32533;SDS011;18973;48.580;8.912;2023-03-21T06:58:40;5.00;;;4.50;;
32533;SDS011;18973;48.580;8.912;2023-03-21T07:01:06;8.57;;;4.18;;
32533;SDS011;18973;48.580;8.912;2023-03-21T07:03:33;9.75;;;4.10;;
32533;SDS011;18973;48.580;8.912;2023-03-21T07:06:09;8.75;;;4.10;;
32533;SDS011;18973;48.580;8.912;2023-03-21T07:08:39;4.55;;;3.80;;
32533;SDS011;18973;48.580;8.912;2023-03-21T07:11:05;5.57;;;4.00;;
32533;SDS011;18973;48.580;8.912;2023-03-21T07:13:32;5.65;;;3.45;;
32533;SDS011;18973;48.580;8.912;2023-03-21T07:15:58;7.53;;;3.70;;
32533;SDS011;18973;48.580;8.912;2023-03-21T07:18:24;5.30;;;3.42;;
32533;SDS011;18973;48.580;8.912;2023-03-21T07:20:50;5.35;;;3.40;;
32533;SDS011;18973;48.580;8.912;2023-03-21T07:23:20;7.65;;;3.40;;
32533;SDS011;18973;48.580;8.912;2023-03-21T07:25:47;4.68;;;3.67;;
32533;SDS011;18973;48.580;8.912;2023-03-21T07:28:14;5.53;;;3.33;;
32533;SDS011;18973;48.580;8.912;2023-03-21T07:30:41;5.38;;;3.53;;
32533;SDS011;18973;48.580;8.912;2023-03-21T07:33:08;4.38;;;3.30;;
32533;SDS011;18973;48.580;8.912;2023-03-21T07:35:33;4.18;;;3.10;;
32533;SDS011;18973;48.580;8.912;2023-03-21T07:38:01;5.82;;;3.40;;
32533;SDS011;18973;48.580;8.912;2023-03-21T07:40:28;9.90;;;3.80;;
32533;SDS011;18973;48.580;8.912;2023-03-21T07:42:53;5.97;;;3.30;;
32533;SDS011;18973;48.580;8.912;2023-03-21T07:45:19;4.25;;;3.17;;
32533;SDS011;18973;48.580;8.912;2023-03-21T07:47:47;4.13;;;3.05;;
32533;SDS011;18973;48.580;8.912;2023-03-21T07:50:14;5.35;;;3.30;;
32533;SDS011;18973;48.580;8.912;2023-03-21T07:52:40;3.22;;;2.85;;
32533;SDS011;18973;48.580;8.912;2023-03-21T07:55:06;4.80;;;3.15;;
32533;SDS011;18973;48.580;8.912;2023-03-21T07:57:32;6.10;;;3.42;;
32533;SDS011;18973;48.580;8.912;2023-03-21T07:59:58;4.18;;;3.17;;
32533;SDS011;18973;48.580;8.912;2023-03-21T08:02:24;3.97;;;3.40;;
32533;SDS011;18973;48.580;8.912;2023-03-21T08:04:50;5.35;;;2.95;;
32533;SDS011;18973;48.580;8.912;2023-03-21T08:07:16;3.75;;;3.00;;
32533;SDS011;18973;48.580;8.912;2023-03-21T08:09:42;5.72;;;3.30;;
32533;SDS011;18973;48.580;8.912;2023-03-21T08:12:08;4.55;;;3.38;;
32533;SDS011;18973;48.580;8.912;2023-03-21T08:14:34;4.55;;;3.17;;
32533;SDS011;18973;48.580;8.912;2023-03-21T08:17:01;5.85;;;3.42;;
32533;SDS011;18973;48.580;8.912;2023-03-21T08:19:27;3.75;;;3.20;;
32533;SDS011;18973;48.580;8.912;2023-03-21T08:21:53;6.93;;;3.15;;
32533;SDS011;18973;48.580;8.912;2023-03-21T08:24:19;5.28;;;2.75;;
32533;SDS011;18973;48.580;8.912;2023-03-21T08:26:45;6.80;;;2.78;;
32533;SDS011;18973;48.580;8.912;2023-03-21T08:29:13;4.88;;;3.35;;
32533;SDS011;18973;48.580;8.912;2023-03-21T08:31:39;5.25;;;2.95;;
32533;SDS011;18973;48.580;8.912;2023-03-21T08:34:05;3.97;;;2.90;;
32533;SDS011;18973;48.580;8.912;2023-03-21T08:36:31;4.68;;;3.38;;
32533;SDS011;18973;48.580;8.912;2023-03-21T08:39:00;6.60;;;3.55;;
32533;SDS011;18973;48.580;8.912;2023-03-21T08:41:30;5.38;;;3.25;;
32533;SDS011;18973;48.580;8.912;2023-03-21T08:43:56;4.18;;;2.50;;
32533;SDS011;18973;48.580;8.912;2023-03-21T08:46:22;4.57;;;3.00;;
32533;SDS011;18973;48.580;8.912;2023-03-21T08:48:48;5.30;;;3.22;;
32533;SDS011;18973;48.580;8.912;2023-03-21T08:51:13;3.75;;;2.55;;
32533;SDS011;18973;48.580;8.912;2023-03-21T08:53:39;3.90;;;2.60;;
32533;SDS011;18973;48.580;8.912;2023-03-21T08:56:06;6.85;;;2.95;;
32533;SDS011;18973;48.580;8.912;2023-03-21T08:58:32;7.20;;;2.92;;
32533;SDS011;18973;48.580;8.912;2023-03-21T09:00:57;8.98;;;2.65;;
32533;SDS011;18973;48.580;8.912;2023-03-21T09:03:23;4.05;;;2.92;;
32533;SDS011;18973;48.580;8.912;2023-03-21T09:05:54;3.95;;;2.60;;
32533;SDS011;18973;48.580;8.912;2023-03-21T09:08:20;4.47;;;2.53;;
32533;SDS011;18973;48.580;8.912;2023-03-21T09:10:48;4.60;;;2.80;;
32533;SDS011;18973;48.580;8.912;2023-03-21T09:13:17;4.05;;;3.05;;
32533;SDS011;18973;48.580;8.912;2023-03-21T09:15:42;3.33;;;2.50;;
32533;SDS011;18973;48.580;8.912;2023-03-21T09:18:09;6.40;;;2.95;;
32533;SDS011;18973;48.580;8.912;2023-03-21T09:20:43;5.85;;;3.40;;
32533;SDS011;18973;48.580;8.912;2023-03-21T09:23:10;4.25;;;2.70;;
32533;SDS011;18973;48.580;8.912;2023-03-21T09:25:37;4.22;;;2.83;;
32533;SDS011;18973;48.580;8.912;2023-03-21T09:28:04;7.80;;;3.13;;
32533;SDS011;18973;48.580;8.912;2023-03-21T09:30:31;4.82;;;2.72;;
32533;SDS011;18973;48.580;8.912;2023-03-21T09:32:59;5.15;;;2.70;;
32533;SDS011;18973;48.580;8.912;2023-03-21T09:35:30;4.45;;;2.65;;
32533;SDS011;18973;48.580;8.912;2023-03-21T09:37:56;4.38;;;2.92;;
32533;SDS011;18973;48.580;8.912;2023-03-21T09:48:38;3.90;;;2.75;;
32533;SDS011;18973;48.580;8.912;2023-03-21T09:51:14;3.40;;;2.33;;
32533;SDS011;18973;48.580;8.912;2023-03-21T09:53:43;5.35;;;3.85;;
32533;SDS011;18973;48.580;8.912;2023-03-21T09:56:12;4.35;;;3.33;;
32533;SDS011;18973;48.580;8.912;2023-03-21T10:03:46;4.90;;;3.50;;
32533;SDS011;18973;48.580;8.912;2023-03-21T10:06:14;4.60;;;3.42;;
32533;SDS011;18973;48.580;8.912;2023-03-21T10:08:42;4.75;;;3.58;;
32533;SDS011;18973;48.580;8.912;2023-03-21T10:14:11;7.03;;;3.40;;
32533;SDS011;18973;48.580;8.912;2023-03-21T10:16:40;4.82;;;3.83;;
32533;SDS011;18973;48.580;8.912;2023-03-21T10:19:12;8.23;;;3.47;;
32533;SDS011;18973;48.580;8.912;2023-03-21T10:21:42;4.47;;;3.50;;
32533;SDS011;18973;48.580;8.912;2023-03-21T10:24:13;9.50;;;3.65;;
32533;SDS011;18973;48.580;8.912;2023-03-21T10:26:41;4.28;;;3.65;;
32533;SDS011;18973;48.580;8.912;2023-03-21T10:29:08;4.10;;;3.58;;
32533;SDS011;18973;48.580;8.912;2023-03-21T10:31:38;5.78;;;3.50;;
32533;SDS011;18973;48.580;8.912;2023-03-21T10:34:12;4.78;;;3.53;;
32533;SDS011;18973;48.580;8.912;2023-03-21T10:36:42;5.30;;;3.47;;
32533;SDS011;18973;48.580;8.912;2023-03-21T10:39:14;3.47;;;2.60;;
32533;SDS011;18973;48.580;8.912;2023-03-21T10:42:03;3.30;;;3.00;;
32533;SDS011;18973;48.580;8.912;2023-03-21T10:44:31;4.97;;;2.58;;
32533;SDS011;18973;48.580;8.912;2023-03-21T10:47:05;3.40;;;2.40;;
32533;SDS011;18973;48.580;8.912;2023-03-21T10:49:33;3.83;;;2.60;;
32533;SDS011;18973;48.580;8.912;2023-03-21T10:52:02;4.18;;;2.78;;
32533;SDS011;18973;48.580;8.912;2023-03-21T10:54:32;6.30;;;2.80;;
32533;SDS011;18973;48.580;8.912;2023-03-21T10:57:11;5.35;;;3.20;;
32533;SDS011;18973;48.580;8.912;2023-03-21T10:59:43;11.25;;;5.30;;
32533;SDS011;18973;48.580;8.912;2023-03-21T11:02:20;4.05;;;2.83;;
32533;SDS011;18973;48.580;8.912;2023-03-21T11:05:03;5.97;;;2.90;;
32533;SDS011;18973;48.580;8.912;2023-03-21T11:07:32;4.72;;;2.47;;
32533;SDS011;18973;48.580;8.912;2023-03-21T11:10:00;5.82;;;2.63;;
32533;SDS011;18973;48.580;8.912;2023-03-21T11:12:39;3.78;;;2.72;;
32533;SDS011;18973;48.580;8.912;2023-03-21T11:18:22;3.13;;;2.83;;
32533;SDS011;18973;48.580;8.912;2023-03-21T11:23:21;3.28;;;2.63;;
32533;SDS011;18973;48.580;8.912;2023-03-21T11:25:52;4.07;;;2.70;;
32533;SDS011;18973;48.580;8.912;2023-03-21T11:28:21;4.43;;;2.13;;
32533;SDS011;18973;48.580;8.912;2023-03-21T11:30:49;2.58;;;2.10;;
32533;SDS011;18973;48.580;8.912;2023-03-21T11:33:16;3.22;;;1.92;;
32533;SDS011;18973;48.580;8.912;2023-03-21T11:35:43;6.40;;;2.15;;
32533;SDS011;18973;48.580;8.912;2023-03-21T11:38:25;2.67;;;1.48;;
32533;SDS011;18973;48.580;8.912;2023-03-21T11:40:56;2.28;;;1.73;;
32533;SDS011;18973;48.580;8.912;2023-03-21T11:43:28;2.00;;;1.40;;
32533;SDS011;18973;48.580;8.912;2023-03-21T11:46:00;3.25;;;1.50;;
32533;SDS011;18973;48.580;8.912;2023-03-21T11:48:43;2.42;;;1.35;;
32533;SDS011;18973;48.580;8.912;2023-03-21T11:56:39;4.28;;;1.38;;
32533;SDS011;18973;48.580;8.912;2023-03-21T12:02:14;3.35;;;1.55;;
32533;SDS011;18973;48.580;8.912;2023-03-21T12:04:56;3.58;;;1.38;;
32533;SDS011;18973;48.580;8.912;2023-03-21T12:18:40;2.60;;;2.03;;
32533;SDS011;18973;48.580;8.912;2023-03-21T12:26:42;6.38;;;1.90;;
32533;SDS011;18973;48.580;8.912;2023-03-21T12:29:33;3.53;;;2.00;;
32533;SDS011;18973;48.580;8.912;2023-03-21T12:35:20;4.22;;;2.17;;
32533;SDS011;18973;48.580;8.912;2023-03-21T12:45:51;3.10;;;2.15;;
32533;SDS011;18973;48.580;8.912;2023-03-21T12:48:40;5.53;;;1.55;;
32533;SDS011;18973;48.580;8.912;2023-03-21T12:51:16;4.28;;;1.83;;
32533;SDS011;18973;48.580;8.912;2023-03-21T12:53:53;4.75;;;2.15;;
32533;SDS011;18973;48.580;8.912;2023-03-21T12:56:30;2.28;;;1.65;;
32533;SDS011;18973;48.580;8.912;2023-03-21T12:59:02;2.85;;;1.48;;
32533;SDS011;18973;48.580;8.912;2023-03-21T13:01:42;4.40;;;1.40;;
32533;SDS011;18973;48.580;8.912;2023-03-21T13:04:20;2.28;;;1.30;;
32533;SDS011;18973;48.580;8.912;2023-03-21T13:06:57;1.92;;;1.30;;
32533;SDS011;18973;48.580;8.912;2023-03-21T13:09:39;3.38;;;1.10;;
32533;SDS011;18973;48.580;8.912;2023-03-21T13:12:10;3.28;;;1.00;;
32533;SDS011;18973;48.580;8.912;2023-03-21T13:14:40;1.65;;;1.15;;
32533;SDS011;18973;48.580;8.912;2023-03-21T13:17:28;3.88;;;1.20;;
32533;SDS011;18973;48.580;8.912;2023-03-21T13:20:20;1.75;;;1.02;;
32533;SDS011;18973;48.580;8.912;2023-03-21T13:22:53;1.45;;;0.98;;
32533;SDS011;18973;48.580;8.912;2023-03-21T13:25:22;2.22;;;1.10;;
32533;SDS011;18973;48.580;8.912;2023-03-21T13:27:50;1.10;;;1.00;;
32533;SDS011;18973;48.580;8.912;2023-03-21T13:30:21;3.03;;;1.30;;
32533;SDS011;18973;48.580;8.912;2023-03-21T13:33:05;1.85;;;1.10;;
32533;SDS011;18973;48.580;8.912;2023-03-21T13:35:36;2.13;;;1.23;;
32533;SDS011;18973;48.580;8.912;2023-03-21T13:38:18;1.38;;;0.90;;
32533;SDS011;18973;48.580;8.912;2023-03-21T13:40:47;3.00;;;1.63;;
32533;SDS011;18973;48.580;8.912;2023-03-21T13:49:11;2.05;;;0.80;;
32533;SDS011;18973;48.580;8.912;2023-03-21T13:51:46;0.90;;;0.73;;
32533;SDS011;18973;48.580;8.912;2023-03-21T14:04:58;0.43;;;0.40;;
32533;SDS011;18973;48.580;8.912;2023-03-21T14:07:33;0.75;;;0.50;;
32533;SDS011;18973;48.580;8.912;2023-03-21T14:10:05;1.88;;;0.50;;
32533;SDS011;18973;48.580;8.912;2023-03-21T14:12:43;1.95;;;0.40;;
32533;SDS011;18973;48.580;8.912;2023-03-21T14:15:13;0.70;;;0.40;;
32533;SDS011;18973;48.580;8.912;2023-03-21T14:17:48;0.40;;;0.30;;
32533;SDS011;18973;48.580;8.912;2023-03-21T14:20:17;2.38;;;0.50;;
32533;SDS011;18973;48.580;8.912;2023-03-21T14:22:50;1.42;;;0.55;;
32533;SDS011;18973;48.580;8.912;2023-03-21T14:25:17;1.13;;;0.50;;
32533;SDS011;18973;48.580;8.912;2023-03-21T14:27:46;1.52;;;0.60;;
32533;SDS011;18973;48.580;8.912;2023-03-21T14:30:28;0.43;;;0.40;;
32533;SDS011;18973;48.580;8.912;2023-03-21T14:33:02;3.20;;;0.43;;
32533;SDS011;18973;48.580;8.912;2023-03-21T14:35:42;1.67;;;0.47;;
32533;SDS011;18973;48.580;8.912;2023-03-21T14:38:51;0.70;;;0.50;;
32533;SDS011;18973;48.580;8.912;2023-03-21T14:41:04;1.25;;;0.55;;
32533;SDS011;18973;48.580;8.912;2023-03-21T14:43:30;1.15;;;0.47;;
32533;SDS011;18973;48.580;8.912;2023-03-21T14:45:58;3.05;;;0.50;;
32533;SDS011;18973;48.580;8.912;2023-03-21T14:48:28;0.73;;;0.50;;
32533;SDS011;18973;48.580;8.912;2023-03-21T14:50:57;1.42;;;0.50;;
32533;SDS011;18973;48.580;8.912;2023-03-21T14:53:28;1.83;;;0.63;;
32533;SDS011;18973;48.580;8.912;2023-03-21T14:56:06;45.85;;;16.45;;
32533;SDS011;18973;48.580;8.912;2023-03-21T14:58:39;2.10;;;0.60;;
32533;SDS011;18973;48.580;8.912;2023-03-21T15:01:06;2.35;;;0.40;;
32533;SDS011;18973;48.580;8.912;2023-03-21T15:03:45;1.65;;;0.60;;
32533;SDS011;18973;48.580;8.912;2023-03-21T15:06:15;3.72;;;0.70;;
32533;SDS011;18973;48.580;8.912;2023-03-21T15:08:52;0.40;;;0.38;;
32533;SDS011;18973;48.580;8.912;2023-03-21T15:11:21;0.65;;;0.40;;
32533;SDS011;18973;48.580;8.912;2023-03-21T15:13:58;1.35;;;0.30;;
32533;SDS011;18973;48.580;8.912;2023-03-21T15:16:26;1.58;;;0.60;;
32533;SDS011;18973;48.580;8.912;2023-03-21T15:18:53;0.68;;;0.50;;
32533;SDS011;18973;48.580;8.912;2023-03-21T15:21:23;0.75;;;0.50;;
32533;SDS011;18973;48.580;8.912;2023-03-21T15:23:55;1.40;;;0.70;;
32533;SDS011;18973;48.580;8.912;2023-03-21T15:26:25;1.00;;;0.57;;
32533;SDS011;18973;48.580;8.912;2023-03-21T15:28:56;0.55;;;0.40;;
32533;SDS011;18973;48.580;8.912;2023-03-21T15:31:25;2.20;;;0.45;;
32533;SDS011;18973;48.580;8.912;2023-03-21T15:33:58;0.40;;;0.40;;
32533;SDS011;18973;48.580;8.912;2023-03-21T15:36:36;0.68;;;0.40;;
32533;SDS011;18973;48.580;8.912;2023-03-21T15:39:08;0.88;;;0.35;;
32533;SDS011;18973;48.580;8.912;2023-03-21T15:41:38;0.98;;;0.52;;
32533;SDS011;18973;48.580;8.912;2023-03-21T15:44:10;1.17;;;0.68;;
32533;SDS011;18973;48.580;8.912;2023-03-21T15:46:44;1.33;;;0.70;;
32533;SDS011;18973;48.580;8.912;2023-03-21T15:51:41;2.30;;;0.65;;
32533;SDS011;18973;48.580;8.912;2023-03-21T15:54:14;1.88;;;0.73;;
32533;SDS011;18973;48.580;8.912;2023-03-21T15:56:41;2.70;;;0.47;;
32533;SDS011;18973;48.580;8.912;2023-03-21T15:59:12;1.60;;;0.60;;
32533;SDS011;18973;48.580;8.912;2023-03-21T16:01:43;1.40;;;0.88;;
32533;SDS011;18973;48.580;8.912;2023-03-21T16:04:13;1.83;;;0.80;;
32533;SDS011;18973;48.580;8.912;2023-03-21T16:06:57;1.67;;;0.80;;
32533;SDS011;18973;48.580;8.912;2023-03-21T16:09:42;1.45;;;0.82;;
32533;SDS011;18973;48.580;8.912;2023-03-21T16:12:10;1.15;;;0.70;;
32533;SDS011;18973;48.580;8.912;2023-03-21T16:14:38;1.58;;;1.00;;
32533;SDS011;18973;48.580;8.912;2023-03-21T16:19:52;1.13;;;0.70;;
32533;SDS011;18973;48.580;8.912;2023-03-21T16:22:18;0.88;;;0.50;;
32533;SDS011;18973;48.580;8.912;2023-03-21T16:24:45;2.92;;;0.80;;
32533;SDS011;18973;48.580;8.912;2023-03-21T16:27:11;0.50;;;0.50;;
32533;SDS011;18973;48.580;8.912;2023-03-21T16:29:37;1.70;;;0.50;;
32533;SDS011;18973;48.580;8.912;2023-03-21T16:32:03;1.92;;;0.60;;
32533;SDS011;18973;48.580;8.912;2023-03-21T16:34:30;1.83;;;0.68;;
32533;SDS011;18973;48.580;8.912;2023-03-21T16:36:56;2.42;;;0.85;;
32533;SDS011;18973;48.580;8.912;2023-03-21T16:39:23;1.60;;;1.08;;
32533;SDS011;18973;48.580;8.912;2023-03-21T16:41:50;2.20;;;1.00;;
32533;SDS011;18973;48.580;8.912;2023-03-21T16:44:17;2.15;;;0.73;;
32533;SDS011;18973;48.580;8.912;2023-03-21T16:46:43;6.90;;;2.67;;
32533;SDS011;18973;48.580;8.912;2023-03-21T16:49:21;2.38;;;1.67;;
32533;SDS011;18973;48.580;8.912;2023-03-21T16:51:49;1.25;;;0.77;;
32533;SDS011;18973;48.580;8.912;2023-03-21T16:54:15;3.17;;;0.73;;
32533;SDS011;18973;48.580;8.912;2023-03-21T16:56:42;0.95;;;0.70;;
32533;SDS011;18973;48.580;8.912;2023-03-21T16:59:11;4.28;;;1.92;;